Time;durP1;ratioP1;P1;durP2;ratioP2;P2;SDS_P1;SDS_P2;PMS_P1;PMS_P2;Temp;Humidity;BMP_temperature;BMP_pressure;BME280_temperature;BME280_humidity;BME280_pressure;Samples;Min_cycle;Max_cycle;Signal;HPM_P1;HPM_P2
2023/04/19 00:00:53;;;;;;;6.20;2.70;;;6.20;99.90;;;;;;5175559;28;20435;-50
2023/04/19 00:03:24;;;;;;;4.67;3.03;;;6.20;99.90;;;;;;5172068;28;20255;-48
2023/04/19 00:05:58;;;;;;;6.30;3.20;;;6.20;99.90;;;;;;5175848;28;20176;-49
2023/04/19 00:08:28;;;;;;;3.90;2.50;;;6.30;99.90;;;;;;5172586;28;20494;-50
2023/04/19 00:10:59;;;;;;;5.90;3.30;;;6.20;99.90;;;;;;5176602;28;20883;-50
2023/04/19 00:13:29;;;;;;;2.97;2.77;;;6.20;99.90;;;;;;5178911;28;20207;-50
2023/04/19 00:16:00;;;;;;;2.90;2.70;;;6.20;99.90;;;;;;5178120;28;20188;-50
2023/04/19 00:18:31;;;;;;;3.20;3.00;;;6.10;99.90;;;;;;5177262;28;20215;-49
2023/04/19 00:21:02;;;;;;;4.47;3.00;;;6.10;99.90;;;;;;5176095;28;20447;-50
2023/04/19 00:23:33;;;;;;;3.33;3.03;;;6.10;99.90;;;;;;5169538;28;20207;-50
2023/04/19 00:26:04;;;;;;;3.37;2.87;;;6.10;99.90;;;;;;5182495;28;20430;-50
2023/04/19 00:28:34;;;;;;;2.70;2.13;;;6.10;99.90;;;;;;5178126;28;20512;-49
2023/04/19 00:31:05;;;;;;;3.10;2.80;;;6.10;99.90;;;;;;5179311;28;20235;-49
2023/04/19 00:33:36;;;;;;;11.93;2.90;;;6.10;99.90;;;;;;5177059;28;20663;-46
2023/04/19 00:36:06;;;;;;;3.70;2.60;;;6.10;99.90;;;;;;5178192;28;20185;-48
2023/04/19 00:38:37;;;;;;;6.80;2.57;;;6.10;99.90;;;;;;5176990;28;20287;-49
2023/04/19 00:41:08;;;;;;;5.20;3.03;;;6.10;99.90;;;;;;5185612;28;20191;-50
2023/04/19 00:43:38;;;;;;;15.70;2.40;;;6.10;99.90;;;;;;5175491;28;20622;-51
2023/04/19 00:46:09;;;;;;;5.40;2.83;;;6.00;99.90;;;;;;5184455;28;20262;-49
2023/04/19 00:48:40;;;;;;;6.37;3.43;;;6.00;99.90;;;;;;5184081;28;20256;-51
2023/04/19 00:51:11;;;;;;;2.40;2.13;;;6.10;99.90;;;;;;5184926;28;20230;-49
2023/04/19 00:53:42;;;;;;;4.80;2.63;;;6.00;99.90;;;;;;5178037;28;20435;-50
2023/04/19 00:56:14;;;;;;;4.20;2.30;;;6.00;99.90;;;;;;5183495;28;20431;-53
2023/04/19 00:58:46;;;;;;;7.00;2.73;;;5.90;99.90;;;;;;5172242;28;20208;-50
2023/04/19 01:01:17;;;;;;;2.00;1.80;;;5.90;99.90;;;;;;5176222;28;20430;-49
2023/04/19 01:03:47;;;;;;;2.80;2.27;;;5.80;99.90;;;;;;5183773;28;20441;-49
2023/04/19 01:06:18;;;;;;;4.00;2.20;;;5.70;99.90;;;;;;5179648;28;20443;-48
2023/04/19 01:08:49;;;;;;;2.43;2.23;;;5.70;99.90;;;;;;5171898;28;20582;-49
2023/04/19 01:11:19;;;;;;;7.20;2.67;;;5.70;99.90;;;;;;5182551;28;20185;-49
2023/04/19 01:13:50;;;;;;;4.00;3.27;;;5.60;99.90;;;;;;5167343;28;20210;-48
2023/04/19 01:16:21;;;;;;;3.63;2.33;;;5.50;99.90;;;;;;5184052;28;20279;-50
2023/04/19 01:18:52;;;;;;;5.70;2.57;;;5.50;99.90;;;;;;5175596;28;20204;-48
2023/04/19 01:21:23;;;;;;;2.83;2.63;;;5.40;99.90;;;;;;5179495;28;20337;-49
2023/04/19 01:23:53;;;;;;;2.90;2.70;;;5.30;99.90;;;;;;5182273;28;20449;-49
2023/04/19 01:26:25;;;;;;;2.60;2.40;;;5.30;99.90;;;;;;5165818;28;20179;-49
2023/04/19 01:28:55;;;;;;;7.50;2.93;;;5.20;99.90;;;;;;5178141;28;20204;-52
2023/04/19 01:31:26;;;;;;;3.20;2.00;;;5.20;99.90;;;;;;5171462;28;20782;-50
2023/04/19 01:33:57;;;;;;;5.63;3.03;;;5.10;99.90;;;;;;5172652;28;20184;-49
2023/04/19 01:36:27;;;;;;;4.50;3.00;;;5.10;99.90;;;;;;5176523;28;20180;-51
2023/04/19 01:38:58;;;;;;;7.10;2.57;;;5.00;99.90;;;;;;5172636;28;20668;-49
2023/04/19 01:41:28;;;;;;;6.00;2.03;;;4.90;99.90;;;;;;5181820;28;20204;-49
2023/04/19 01:43:59;;;;;;;17.10;2.83;;;4.90;99.90;;;;;;5183757;28;20188;-49
2023/04/19 01:46:30;;;;;;;4.23;2.13;;;4.80;99.90;;;;;;5177530;28;20215;-49
2023/04/19 01:49:01;;;;;;;6.53;3.07;;;4.90;99.90;;;;;;5180516;28;20452;-51
2023/04/19 01:51:31;;;;;;;2.50;2.40;;;4.80;99.90;;;;;;5175654;28;20270;-49
2023/04/19 01:54:02;;;;;;;3.00;2.80;;;4.80;99.90;;;;;;5157519;28;20193;-49
2023/04/19 01:56:33;;;;;;;4.63;2.80;;;4.80;99.90;;;;;;5178037;28;20200;-49
2023/04/19 01:59:03;;;;;;;2.63;2.20;;;4.70;99.90;;;;;;5172320;28;20539;-48
2023/04/19 02:01:34;;;;;;;2.43;2.33;;;4.70;99.90;;;;;;5181686;28;20310;-48
2023/04/19 02:04:06;;;;;;;3.23;2.47;;;4.70;99.90;;;;;;5180006;28;20190;-49
2023/04/19 02:06:37;;;;;;;2.90;2.53;;;4.60;99.90;;;;;;5172876;28;20201;-50
2023/04/19 02:09:08;;;;;;;5.13;2.50;;;4.60;99.90;;;;;;5171780;28;20464;-49
2023/04/19 02:11:38;;;;;;;5.70;2.50;;;4.60;99.90;;;;;;5174272;28;20181;-49
2023/04/19 02:14:09;;;;;;;3.10;2.53;;;4.60;99.90;;;;;;5179621;28;20421;-48
2023/04/19 02:16:40;;;;;;;2.20;2.00;;;4.60;99.90;;;;;;5180123;28;20700;-49
2023/04/19 02:19:11;;;;;;;1.90;1.80;;;4.50;99.90;;;;;;5175263;28;20202;-50
2023/04/19 02:21:41;;;;;;;2.00;1.87;;;4.40;99.90;;;;;;5176454;28;20562;-50
2023/04/19 02:24:12;;;;;;;3.60;2.20;;;4.40;99.90;;;;;;5181996;28;20220;-47
2023/04/19 02:26:43;;;;;;;3.20;2.20;;;4.30;99.90;;;;;;5170718;28;20213;-50
2023/04/19 02:29:15;;;;;;;2.90;2.17;;;4.30;99.90;;;;;;5175736;28;20196;-50
2023/04/19 02:31:46;;;;;;;4.00;2.53;;;4.20;99.90;;;;;;5169205;28;20540;-50
2023/04/19 02:34:17;;;;;;;2.93;1.90;;;4.20;99.90;;;;;;5179679;28;20441;-49
2023/04/19 02:36:48;;;;;;;2.40;2.30;;;4.10;99.90;;;;;;5174562;28;20206;-49
2023/04/19 02:39:18;;;;;;;3.53;2.33;;;4.10;99.90;;;;;;5175539;28;20468;-50
2023/04/19 02:41:49;;;;;;;3.67;2.70;;;4.00;99.90;;;;;;5179501;28;20214;-49
2023/04/19 02:44:20;;;;;;;5.33;2.70;;;4.10;99.90;;;;;;5175020;28;20452;-49
2023/04/19 02:46:51;;;;;;;3.47;2.07;;;4.10;99.90;;;;;;5179039;28;20468;-50
2023/04/19 02:49:22;;;;;;;2.57;2.23;;;4.00;99.90;;;;;;5180521;28;20216;-49
2023/04/19 02:51:52;;;;;;;8.23;3.00;;;4.10;99.90;;;;;;5180091;28;20467;-50
2023/04/19 02:54:23;;;;;;;6.23;2.40;;;3.90;99.90;;;;;;5175723;28;20274;-49
2023/04/19 02:56:56;;;;;;;5.03;2.67;;;3.90;99.90;;;;;;5174199;28;20186;-48
2023/04/19 02:59:27;;;;;;;4.63;2.40;;;3.90;99.90;;;;;;5175508;28;20465;-50
2023/04/19 03:01:57;;;;;;;3.60;2.00;;;3.80;99.90;;;;;;5181790;28;20527;-50
2023/04/19 03:04:28;;;;;;;6.63;2.67;;;3.70;99.90;;;;;;5174002;28;20177;-50
2023/04/19 03:06:58;;;;;;;2.93;2.60;;;3.70;99.90;;;;;;5174956;28;20411;-49
2023/04/19 03:09:29;;;;;;;1.80;1.70;;;3.60;99.90;;;;;;5163365;28;20214;-50
2023/04/19 03:12:00;;;;;;;1.60;1.57;;;3.60;99.90;;;;;;5171271;28;20186;-50
2023/04/19 03:14:32;;;;;;;3.17;2.40;;;3.70;99.90;;;;;;5171910;28;20177;-49
2023/04/19 03:17:03;;;;;;;2.00;1.90;;;3.60;99.90;;;;;;5195335;28;20600;-49
2023/04/19 03:19:34;;;;;;;3.63;2.40;;;3.50;99.90;;;;;;5178307;28;20525;-50
2023/04/19 03:22:04;;;;;;;2.23;2.13;;;3.50;99.90;;;;;;5177214;28;20203;-49
2023/04/19 03:24:35;;;;;;;2.53;1.93;;;3.50;99.90;;;;;;5183709;28;20261;-49
2023/04/19 03:27:06;;;;;;;2.30;1.50;;;3.50;99.90;;;;;;5171733;28;20177;-49
2023/04/19 03:29:36;;;;;;;1.90;1.80;;;3.50;99.90;;;;;;5174673;28;20216;-49
2023/04/19 03:32:07;;;;;;;2.10;1.90;;;3.50;99.90;;;;;;5181645;28;20248;-50
2023/04/19 03:34:38;;;;;;;6.10;1.87;;;3.60;99.90;;;;;;5139714;28;20177;-50
2023/04/19 03:37:08;;;;;;;7.80;2.00;;;3.40;99.90;;;;;;5184665;28;20204;-49
2023/04/19 03:39:39;;;;;;;6.30;2.43;;;3.40;99.90;;;;;;5200486;28;20614;-48
2023/04/19 03:42:10;;;;;;;2.50;2.30;;;3.40;99.90;;;;;;5181489;28;20778;-50
2023/04/19 03:44:40;;;;;;;1.93;1.90;;;3.30;99.90;;;;;;5178705;28;20227;-50
2023/04/19 03:47:11;;;;;;;3.20;1.90;;;3.30;99.90;;;;;;5180027;28;20255;-50
2023/04/19 03:49:41;;;;;;;5.97;2.50;;;3.30;99.90;;;;;;5172348;28;20244;-49
2023/04/19 03:52:12;;;;;;;2.03;1.60;;;3.20;99.90;;;;;;5178406;28;20182;-49
2023/04/19 03:54:42;;;;;;;1.87;1.63;;;3.30;99.90;;;;;;5184644;28;20195;-49
2023/04/19 03:57:16;;;;;;;2.77;2.53;;;3.20;99.90;;;;;;5165135;28;20240;-53
2023/04/19 03:59:47;;;;;;;1.73;1.63;;;3.20;99.90;;;;;;5184927;28;20454;-48
2023/04/19 04:02:17;;;;;;;2.07;1.97;;;3.20;99.90;;;;;;5183724;28;20475;-50
2023/04/19 04:04:53;;;;;;;2.27;2.10;;;3.30;99.90;;;;;;5181690;28;20263;-49
2023/04/19 04:07:24;;;;;;;2.00;1.80;;;3.30;99.90;;;;;;5179564;28;20193;-49
2023/04/19 04:09:55;;;;;;;2.60;2.33;;;3.30;99.90;;;;;;5172652;28;20784;-49
2023/04/19 04:12:25;;;;;;;6.83;1.97;;;3.30;99.90;;;;;;5183804;28;20470;-47
2023/04/19 04:14:56;;;;;;;2.23;2.10;;;3.30;99.90;;;;;;5178686;28;20193;-50
2023/04/19 04:17:27;;;;;;;6.27;1.63;;;3.30;99.90;;;;;;5183501;28;20209;-51
2023/04/19 04:19:57;;;;;;;4.37;2.20;;;3.30;99.90;;;;;;5172413;28;20193;-50
2023/04/19 04:22:28;;;;;;;6.43;2.40;;;3.40;99.90;;;;;;5181546;28;20204;-50
2023/04/19 04:25:00;;;;;;;4.03;2.33;;;3.40;99.90;;;;;;5183994;28;20177;-48
2023/04/19 04:27:30;;;;;;;2.00;1.90;;;3.40;99.90;;;;;;5177257;28;20252;-49
2023/04/19 04:30:01;;;;;;;3.30;2.03;;;3.50;99.90;;;;;;5183305;28;20442;-49
2023/04/19 04:32:34;;;;;;;9.20;1.90;;;3.50;99.90;;;;;;5176276;28;20269;-50
2023/04/19 04:35:06;;;;;;;5.53;2.43;;;3.50;99.90;;;;;;5178428;28;20178;-50
2023/04/19 04:37:37;;;;;;;2.53;2.10;;;3.60;99.90;;;;;;5174864;28;20460;-49
2023/04/19 04:40:08;;;;;;;4.93;2.43;;;3.60;99.90;;;;;;5176983;28;20441;-49
2023/04/19 04:42:39;;;;;;;2.30;2.10;;;3.60;99.90;;;;;;5172890;28;20217;-49
2023/04/19 04:45:10;;;;;;;3.83;2.20;;;3.60;99.90;;;;;;5181254;28;20452;-50
2023/04/19 04:47:41;;;;;;;4.00;2.23;;;3.70;99.90;;;;;;5179448;28;20467;-50
2023/04/19 04:50:11;;;;;;;3.17;2.63;;;3.80;99.90;;;;;;5175247;28;20197;-48
2023/04/19 04:52:42;;;;;;;3.33;2.67;;;4.10;99.90;;;;;;5175154;28;20209;-49
2023/04/19 04:55:12;;;;;;;3.57;2.10;;;4.70;99.90;;;;;;5177166;28;20565;-51
2023/04/19 04:57:43;;;;;;;1.70;1.60;;;5.70;99.90;;;;;;5176628;28;20697;-54
2023/04/19 05:00:14;;;;;;;5.03;2.17;;;6.40;99.90;;;;;;5179807;28;20242;-49
2023/04/19 05:02:45;;;;;;;2.27;2.00;;;6.70;99.90;;;;;;5184957;28;20208;-49
2023/04/19 05:05:15;;;;;;;5.30;2.43;;;7.00;99.90;;;;;;5179189;28;20518;-50
2023/04/19 05:07:46;;;;;;;1.67;1.47;;;7.40;99.90;;;;;;5176987;28;20227;-49
2023/04/19 05:10:17;;;;;;;12.93;2.17;;;8.10;99.90;;;;;;5174361;28;20612;-51
2023/04/19 05:12:48;;;;;;;2.20;2.00;;;8.90;99.90;;;;;;5178391;28;20276;-49
2023/04/19 05:15:18;;;;;;;4.87;1.83;;;9.60;99.90;;;;;;5158360;28;20188;-50
2023/04/19 05:17:49;;;;;;;2.03;1.93;;;10.70;99.90;;;;;;5190398;28;20208;-51
2023/04/19 05:20:20;;;;;;;6.07;2.00;;;11.70;96.80;;;;;;5179056;28;20184;-49
2023/04/19 05:22:56;;;;;;;1.43;1.33;;;12.70;85.20;;;;;;5178930;28;20219;-50
2023/04/19 05:25:27;;;;;;;1.60;1.50;;;13.20;76.50;;;;;;5176157;28;20188;-51
2023/04/19 05:27:58;;;;;;;1.97;1.73;;;13.80;68.90;;;;;;5174491;28;20462;-50
2023/04/19 05:30:28;;;;;;;3.10;2.43;;;14.30;61.40;;;;;;5164567;28;20961;-49
2023/04/19 05:32:59;;;;;;;3.23;2.10;;;15.40;59.30;;;;;;5173951;28;20288;-47
2023/04/19 05:35:30;;;;;;;1.80;1.47;;;16.30;52.80;;;;;;5180774;28;20251;-49
2023/04/19 05:38:01;;;;;;;1.67;1.57;;;17.10;50.60;;;;;;5193281;28;21618;-50
2023/04/19 05:40:32;;;;;;;3.73;1.97;;;17.30;48.00;;;;;;5181235;28;20228;-49
2023/04/19 05:43:02;;;;;;;5.43;1.57;;;17.60;48.10;;;;;;5173335;28;20496;-47
2023/04/19 05:45:33;;;;;;;8.73;1.30;;;17.40;47.20;;;;;;5166938;28;20187;-49
2023/04/19 05:48:04;;;;;;;1.63;1.53;;;17.50;46.80;;;;;;5169129;28;20570;-49
2023/04/19 05:50:35;;;;;;;3.27;2.00;;;18.10;45.90;;;;;;5181906;28;20177;-49
2023/04/19 05:53:06;;;;;;;7.37;1.57;;;18.30;45.20;;;;;;5175758;28;20600;-48
2023/04/19 05:55:36;;;;;;;1.63;1.53;;;18.20;43.90;;;;;;5179747;28;20439;-51
2023/04/19 05:58:07;;;;;;;3.07;1.80;;;17.70;44.30;;;;;;5182399;28;20227;-48
2023/04/19 06:00:38;;;;;;;4.67;2.43;;;17.50;44.70;;;;;;5181234;28;20537;-48
2023/04/19 06:03:08;;;;;;;3.10;1.53;;;17.00;44.80;;;;;;5180254;28;20266;-49
2023/04/19 06:05:39;;;;;;;2.50;1.67;;;17.00;45.40;;;;;;5180674;28;20780;-48
2023/04/19 06:08:10;;;;;;;3.80;1.60;;;17.20;44.60;;;;;;5182011;28;20200;-49
2023/04/19 06:10:42;;;;;;;4.00;1.90;;;17.80;44.40;;;;;;5180159;28;20443;-51
2023/04/19 06:13:13;;;;;;;3.17;1.93;;;17.80;43.10;;;;;;5181483;28;20545;-50
2023/04/19 06:15:45;;;;;;;2.07;1.40;;;17.90;43.60;;;;;;5183083;28;20466;-50
2023/04/19 06:18:15;;;;;;;2.73;1.60;;;17.90;43.00;;;;;;5182726;28;20719;-51
2023/04/19 06:20:46;;;;;;;3.00;1.87;;;17.90;42.90;;;;;;5183502;28;20431;-49
2023/04/19 06:23:17;;;;;;;1.90;1.60;;;18.70;42.70;;;;;;5177924;28;20212;-49
2023/04/19 06:25:48;;;;;;;4.20;1.67;;;19.90;41.20;;;;;;5180842;28;20198;-48
2023/04/19 06:28:18;;;;;;;2.03;1.50;;;19.50;39.20;;;;;;5181602;28;20458;-49
2023/04/19 06:30:49;;;;;;;2.60;1.73;;;19.40;39.90;;;;;;5181639;28;20176;-52
2023/04/19 06:33:20;;;;;;;3.77;1.67;;;19.30;39.60;;;;;;5182461;28;20668;-50
2023/04/19 06:35:50;;;;;;;3.30;1.60;;;19.90;39.70;;;;;;5182399;28;20183;-50
2023/04/19 06:38:21;;;;;;;2.30;1.30;;;20.20;38.30;;;;;;5178058;28;20200;-48
2023/04/19 06:40:51;;;;;;;1.40;1.40;;;20.70;37.90;;;;;;5160134;28;20180;-51
2023/04/19 06:43:23;;;;;;;2.57;1.77;;;21.50;36.30;;;;;;5177631;28;20221;-49
2023/04/19 06:45:58;;;;;;;1.63;1.53;;;21.00;36.00;;;;;;5180107;28;20184;-50
2023/04/19 06:48:29;;;;;;;1.37;1.27;;;20.70;36.50;;;;;;5178025;28;20454;-49
2023/04/19 06:51:00;;;;;;;2.57;1.50;;;20.10;37.70;;;;;;5182093;28;20429;-49
2023/04/19 06:53:31;;;;;;;2.03;1.67;;;21.00;36.00;;;;;;5171874;28;20969;-51
2023/04/19 06:56:07;;;;;;;3.20;1.80;;;21.50;34.90;;;;;;5181286;28;20581;-52
2023/04/19 06:58:37;;;;;;;1.93;1.83;;;21.60;34.20;;;;;;5185064;28;20203;-50
2023/04/19 07:01:08;;;;;;;2.77;1.40;;;21.10;34.20;;;;;;5183007;28;20434;-56
2023/04/19 07:03:38;;;;;;;2.40;1.60;;;21.60;35.30;;;;;;5186833;28;20673;-50
2023/04/19 07:06:09;;;;;;;2.10;1.90;;;21.90;34.00;;;;;;5186245;28;20630;-50
2023/04/19 07:08:40;;;;;;;2.90;1.40;;;21.40;33.30;;;;;;5204773;28;20593;-50
2023/04/19 07:11:10;;;;;;;1.67;1.53;;;21.90;32.70;;;;;;5185674;28;20259;-51
2023/04/19 07:13:41;;;;;;;1.37;1.27;;;23.20;32.90;;;;;;5186079;28;20181;-49
2023/04/19 07:16:13;;;;;;;2.20;1.93;;;23.80;30.90;;;;;;5186727;28;20263;-49
2023/04/19 07:18:44;;;;;;;6.33;1.37;;;24.10;30.60;;;;;;5181088;28;20204;-49
2023/04/19 07:21:14;;;;;;;2.67;1.20;;;23.70;29.70;;;;;;5183395;28;20457;-50
2023/04/19 07:23:45;;;;;;;2.33;1.73;;;23.20;29.90;;;;;;5186163;28;20238;-48
2023/04/19 07:26:16;;;;;;;3.80;1.93;;;23.00;30.50;;;;;;5186993;28;20239;-50
2023/04/19 07:28:46;;;;;;;2.40;2.20;;;23.30;30.40;;;;;;5182467;28;20208;-50
2023/04/19 07:31:18;;;;;;;1.63;1.53;;;23.40;29.80;;;;;;5185673;28;20235;-50
2023/04/19 07:33:48;;;;;;;13.20;2.17;;;23.10;29.90;;;;;;5186449;28;20862;-50
2023/04/19 07:36:20;;;;;;;1.63;1.53;;;23.00;29.90;;;;;;5198781;28;20431;-49
2023/04/19 07:38:51;;;;;;;1.53;1.53;;;23.60;29.50;;;;;;5182586;28;20228;-49
2023/04/19 07:41:22;;;;;;;2.40;1.13;;;23.50;28.90;;;;;;5184394;28;20478;-51
2023/04/19 07:43:53;;;;;;;2.50;1.70;;;23.00;29.00;;;;;;5183727;28;20661;-50
2023/04/19 07:46:23;;;;;;;1.30;1.20;;;23.20;29.20;;;;;;5183382;28;20474;-50
2023/04/19 07:48:54;;;;;;;3.73;2.30;;;23.30;28.90;;;;;;5181494;28;20272;-50
2023/04/19 07:51:25;;;;;;;1.93;1.83;;;22.80;28.50;;;;;;5186031;28;20580;-50
2023/04/19 07:53:57;;;;;;;1.50;1.40;;;21.60;29.30;;;;;;5199450;28;20192;-49
2023/04/19 07:56:28;;;;;;;5.33;1.60;;;21.50;30.10;;;;;;5184060;28;20538;-49
2023/04/19 07:58:59;;;;;;;2.90;1.03;;;21.70;29.90;;;;;;5182900;28;20493;-50
2023/04/19 08:01:30;;;;;;;3.17;1.80;;;22.70;29.60;;;;;;5185927;28;20172;-50
2023/04/19 08:04:00;;;;;;;3.90;1.70;;;22.30;28.70;;;;;;5183681;28;20441;-49
2023/04/19 08:06:32;;;;;;;2.07;1.90;;;21.60;29.30;;;;;;5183923;28;20185;-49
2023/04/19 08:09:03;;;;;;;1.83;1.50;;;21.60;29.20;;;;;;5184112;28;20298;-51
2023/04/19 08:11:33;;;;;;;3.40;2.00;;;22.20;29.40;;;;;;5182409;28;20447;-48
2023/04/19 08:14:04;;;;;;;2.23;1.80;;;22.60;28.20;;;;;;5164080;28;20431;-49
2023/04/19 08:16:35;;;;;;;1.30;1.20;;;22.50;28.40;;;;;;5200400;28;20346;-50
2023/04/19 08:19:05;;;;;;;2.40;1.80;;;22.20;27.90;;;;;;5181671;28;20204;-49
2023/04/19 08:21:36;;;;;;;2.30;1.90;;;21.80;28.60;;;;;;5183151;28;20212;-48
2023/04/19 08:24:07;;;;;;;8.73;2.00;;;21.80;29.10;;;;;;5186178;28;20176;-49
2023/04/19 08:26:38;;;;;;;4.07;2.87;;;22.20;28.60;;;;;;5183700;28;20188;-50
2023/04/19 08:29:08;;;;;;;1.90;1.80;;;21.30;28.80;;;;;;5180476;28;20204;-49
2023/04/19 08:31:42;;;;;;;11.70;2.37;;;20.00;30.00;;;;;;5186074;28;20529;-51
2023/04/19 08:34:13;;;;;;;3.07;2.10;;;18.00;32.00;;;;;;5184094;28;20295;-51
2023/04/19 08:36:44;;;;;;;1.70;1.60;;;17.00;33.90;;;;;;5183059;28;20519;-51
2023/04/19 08:39:15;;;;;;;3.87;2.60;;;15.40;35.90;;;;;;5186111;28;20192;-49
2023/04/19 08:41:47;;;;;;;5.90;2.63;;;14.70;37.40;;;;;;5182314;28;20462;-50
2023/04/19 08:44:20;;;;;;;4.23;1.77;;;14.20;38.80;;;;;;5183242;28;20242;-50
2023/04/19 08:46:51;;;;;;;6.73;2.80;;;13.70;39.70;;;;;;5179550;28;20435;-50
2023/04/19 08:49:22;;;;;;;4.13;2.47;;;13.40;39.90;;;;;;5183083;28;20919;-50
2023/04/19 08:51:54;;;;;;;4.60;2.00;;;13.10;41.00;;;;;;5183945;28;20188;-50
2023/04/19 08:54:25;;;;;;;6.13;2.30;;;12.80;41.30;;;;;;5185815;28;20511;-51
2023/04/19 08:57:02;;;;;;;7.60;2.43;;;12.90;41.70;;;;;;5182247;28;20444;-48
2023/04/19 08:59:33;;;;;;;3.13;1.73;;;12.90;41.40;;;;;;5183660;28;20446;-49
2023/04/19 09:02:04;;;;;;;2.10;1.70;;;12.90;41.70;;;;;;5181814;28;20475;-49
2023/04/19 09:04:35;;;;;;;7.73;2.67;;;12.70;41.70;;;;;;5182850;28;20443;-50
2023/04/19 09:07:07;;;;;;;6.13;2.37;;;12.40;42.00;;;;;;5183659;28;20251;-51
2023/04/19 09:09:41;;;;;;;6.17;2.80;;;12.50;43.10;;;;;;5183217;28;20200;-49
2023/04/19 09:12:16;;;;;;;3.70;2.03;;;12.90;42.30;;;;;;5183122;28;20526;-51
2023/04/19 09:14:47;;;;;;;4.73;2.30;;;13.00;41.40;;;;;;5182829;28;20540;-49
2023/04/19 09:17:17;;;;;;;2.17;2.03;;;12.70;41.80;;;;;;5177982;28;20866;-51
2023/04/19 09:19:49;;;;;;;4.67;2.07;;;12.50;41.60;;;;;;5181995;28;20587;-50
2023/04/19 09:22:20;;;;;;;3.03;2.40;;;12.60;41.50;;;;;;5182486;28;20250;-49
2023/04/19 09:24:54;;;;;;;4.30;2.63;;;12.60;41.40;;;;;;5183573;28;20416;-51
2023/04/19 09:27:31;;;;;;;4.50;2.07;;;12.70;41.30;;;;;;5181730;28;20478;-50
2023/04/19 09:30:03;;;;;;;5.93;2.27;;;12.70;41.60;;;;;;5192889;28;20440;-51
2023/04/19 09:32:47;;;;;;;2.23;2.13;;;12.50;41.80;;;;;;5182713;28;20443;-50
2023/04/19 09:35:17;;;;;;;8.63;2.80;;;12.10;42.30;;;;;;5182516;28;20439;-52
2023/04/19 09:38:00;;;;;;;2.30;2.20;;;11.70;43.30;;;;;;5182333;28;20459;-51
2023/04/19 09:40:31;;;;;;;2.17;1.93;;;11.80;44.00;;;;;;5181654;28;20220;-48
2023/04/19 09:43:02;;;;;;;2.70;2.00;;;11.70;43.70;;;;;;5183524;28;20992;-47
2023/04/19 09:45:41;;;;;;;3.23;2.00;;;11.70;43.80;;;;;;5184533;28;20190;-50
2023/04/19 09:48:12;;;;;;;1.73;1.63;;;11.80;43.30;;;;;;5182552;28;20519;-49
2023/04/19 09:50:57;;;;;;;2.70;2.50;;;11.70;43.60;;;;;;5184956;28;20439;-52
2023/04/19 09:53:32;;;;;;;3.43;2.57;;;11.90;44.00;;;;;;5183170;28;20493;-50
2023/04/19 09:56:05;;;;;;;2.47;2.10;;;12.00;43.30;;;;;;5185469;28;20446;-49
2023/04/19 09:58:35;;;;;;;4.07;1.73;;;11.80;43.70;;;;;;5183620;28;20804;-50
2023/04/19 10:01:09;;;;;;;3.50;2.10;;;11.70;43.70;;;;;;5185609;28;20443;-51
2023/04/19 10:03:43;;;;;;;3.60;2.53;;;11.70;44.40;;;;;;5182299;28;20345;-52
2023/04/19 10:06:18;;;;;;;4.10;2.40;;;11.90;44.60;;;;;;5185301;28;20420;-52
2023/04/19 10:08:52;;;;;;;4.13;2.20;;;12.00;44.00;;;;;;5182019;28;20965;-50
2023/04/19 10:11:30;;;;;;;4.57;2.63;;;12.00;43.00;;;;;;5180455;28;20948;-51
2023/04/19 10:14:04;;;;;;;3.00;2.30;;;11.80;43.50;;;;;;5175151;28;21446;-49
2023/04/19 10:16:36;;;;;;;4.77;2.57;;;11.80;43.60;;;;;;5184334;28;20506;-50
2023/04/19 10:19:12;;;;;;;2.87;1.73;;;12.10;43.80;;;;;;5179330;28;20451;-50
2023/04/19 10:21:46;;;;;;;3.00;2.07;;;12.40;43.30;;;;;;5184263;28;20416;-53
2023/04/19 10:24:20;;;;;;;2.70;2.17;;;12.50;43.00;;;;;;5182386;28;20725;-51
2023/04/19 10:27:12;;;;;;;12.37;2.73;;;12.60;42.90;;;;;;5179844;28;20988;-51
2023/04/19 10:30:00;;;;;;;5.30;2.43;;;12.70;43.00;;;;;;5178353;28;20442;-50
2023/04/19 10:32:42;;;;;;;6.97;2.80;;;12.60;42.90;;;;;;5180035;28;20788;-51
2023/04/19 10:35:19;;;;;;;10.43;2.47;;;12.40;43.10;;;;;;5180086;28;20443;-49
2023/04/19 10:38:11;;;;;;;9.37;2.57;;;12.20;43.90;;;;;;5183190;28;20463;-49
2023/04/19 10:40:51;;;;;;;3.50;2.77;;;12.30;43.70;;;;;;5181580;28;20509;-50
2023/04/19 10:43:23;;;;;;;3.10;2.40;;;12.20;43.30;;;;;;5179864;28;20566;-49
2023/04/19 10:46:00;;;;;;;4.80;2.37;;;11.90;43.30;;;;;;5182817;28;20554;-51
2023/04/19 10:48:36;;;;;;;6.00;2.40;;;11.90;43.80;;;;;;5183871;28;20482;-50
2023/04/19 10:51:17;;;;;;;3.33;2.97;;;11.70;44.10;;;;;;5180598;28;20565;-51
2023/04/19 10:53:54;;;;;;;4.30;2.57;;;11.90;45.20;;;;;;5180157;28;20540;-50
2023/04/19 10:56:39;;;;;;;4.43;2.23;;;12.10;44.70;;;;;;5181679;28;20779;-48
2023/04/19 10:59:20;;;;;;;2.50;2.30;;;12.50;44.20;;;;;;5178300;28;20450;-49
2023/04/19 11:01:53;;;;;;;2.20;2.00;;;12.60;43.80;;;;;;5177454;28;20459;-49
2023/04/19 11:04:26;;;;;;;4.70;3.00;;;12.70;43.60;;;;;;5178283;28;20442;-49
2023/04/19 11:07:00;;;;;;;6.80;3.00;;;12.70;43.40;;;;;;5182489;28;20431;-51
2023/04/19 11:09:41;;;;;;;2.77;2.57;;;12.40;44.10;;;;;;5177587;28;20439;-49
2023/04/19 11:12:12;;;;;;;2.07;1.80;;;12.40;45.10;;;;;;5195462;28;20510;-51
2023/04/19 11:14:45;;;;;;;4.80;2.13;;;12.80;44.60;;;;;;5194203;28;20539;-50
2023/04/19 11:17:26;;;;;;;4.00;2.83;;;13.10;43.70;;;;;;5176647;28;20474;-49
2023/04/19 11:20:05;;;;;;;4.30;1.87;;;13.00;43.30;;;;;;5176801;28;20439;-49
2023/04/19 11:22:38;;;;;;;3.40;2.50;;;13.10;43.30;;;;;;5176250;28;20467;-51
2023/04/19 11:25:13;;;;;;;5.13;2.77;;;13.10;43.40;;;;;;5177934;28;20477;-48
2023/04/19 11:27:51;;;;;;;2.27;2.17;;;13.30;43.10;;;;;;5183032;28;20445;-51
2023/04/19 11:30:29;;;;;;;6.50;2.77;;;12.90;43.00;;;;;;5181497;28;21006;-50
2023/04/19 11:32:59;;;;;;;2.17;1.97;;;12.70;42.90;;;;;;5176850;28;20931;-49
2023/04/19 11:35:30;;;;;;;7.90;2.50;;;12.40;43.30;;;;;;5179296;28;20431;-51
2023/04/19 11:38:01;;;;;;;3.57;2.03;;;12.30;44.10;;;;;;5178215;28;20238;-50
2023/04/19 11:40:32;;;;;;;4.77;2.50;;;12.40;44.00;;;;;;5192570;28;20467;-50
2023/04/19 11:43:04;;;;;;;3.27;2.83;;;12.80;43.70;;;;;;5178789;28;20230;-51
2023/04/19 11:45:37;;;;;;;7.93;2.47;;;13.10;43.70;;;;;;5182532;28;20184;-49
2023/04/19 11:48:14;;;;;;;4.13;2.43;;;13.20;42.30;;;;;;5183504;28;20478;-49
2023/04/19 11:50:48;;;;;;;7.43;2.20;;;13.10;41.70;;;;;;5183504;28;20421;-50
2023/04/19 11:53:23;;;;;;;9.50;3.13;;;13.00;41.80;;;;;;5180081;28;20599;-49
2023/04/19 11:56:03;;;;;;;5.20;2.53;;;13.00;41.90;;;;;;5184381;28;20505;-50
2023/04/19 11:58:42;;;;;;;3.57;2.50;;;13.10;42.80;;;;;;5184405;28;20466;-49
2023/04/19 12:01:20;;;;;;;9.83;3.20;;;13.30;42.40;;;;;;5187641;28;20419;-52
2023/04/19 12:03:55;;;;;;;3.03;2.53;;;13.20;43.30;;;;;;5184555;28;20466;-49
2023/04/19 12:06:30;;;;;;;3.50;3.13;;;13.30;42.30;;;;;;5184622;28;20426;-51
2023/04/19 12:09:08;;;;;;;7.83;2.93;;;13.20;40.60;;;;;;5183615;28;20468;-50
2023/04/19 12:11:43;;;;;;;4.73;2.67;;;12.90;40.90;;;;;;5183970;28;20967;-50
2023/04/19 12:14:18;;;;;;;5.40;2.67;;;13.00;41.90;;;;;;5179611;28;20433;-51
2023/04/19 12:17:13;;;;;;;2.77;2.07;;;13.10;42.50;;;;;;5184776;28;20522;-52
2023/04/19 12:19:46;;;;;;;4.50;2.73;;;13.20;42.40;;;;;;5181227;28;20437;-53
2023/04/19 12:22:19;;;;;;;6.70;2.80;;;13.50;42.60;;;;;;5177485;28;20502;-51
2023/04/19 12:24:52;;;;;;;6.17;2.87;;;13.60;41.80;;;;;;5185424;28;20904;-51
2023/04/19 12:27:24;;;;;;;4.43;2.37;;;13.10;42.00;;;;;;5185240;28;20455;-51
2023/04/19 12:29:55;;;;;;;6.77;3.03;;;13.00;42.60;;;;;;5182707;28;20435;-51
2023/04/19 12:32:25;;;;;;;6.83;3.20;;;13.00;43.20;;;;;;5178822;28;20997;-51
2023/04/19 12:34:56;;;;;;;3.33;2.60;;;13.10;42.80;;;;;;5185061;28;20219;-50
2023/04/19 12:37:26;;;;;;;11.30;3.07;;;13.10;42.70;;;;;;5180658;28;20709;-49
2023/04/19 12:39:57;;;;;;;9.70;3.00;;;13.00;42.80;;;;;;5182225;28;20188;-48
2023/04/19 12:42:28;;;;;;;3.50;2.80;;;13.20;42.90;;;;;;5199394;28;20232;-49
2023/04/19 12:44:58;;;;;;;4.03;3.47;;;13.20;42.90;;;;;;5180715;28;20181;-49
2023/04/19 12:47:29;;;;;;;4.77;2.90;;;13.10;43.10;;;;;;5182060;28;20200;-50
2023/04/19 12:50:00;;;;;;;4.57;2.80;;;13.10;43.20;;;;;;5182870;28;20195;-50
2023/04/19 12:52:31;;;;;;;7.40;3.43;;;13.10;43.50;;;;;;5180399;28;20198;-49
2023/04/19 12:55:02;;;;;;;8.10;4.40;;;13.00;43.50;;;;;;5184529;28;20428;-50
2023/04/19 12:57:32;;;;;;;5.37;3.40;;;13.10;42.80;;;;;;5183489;28;20952;-51
2023/04/19 13:00:04;;;;;;;4.60;3.63;;;13.20;42.90;;;;;;5182473;28;20878;-49
2023/04/19 13:02:35;;;;;;;8.60;3.40;;;13.40;42.40;;;;;;5182719;28;20196;-50
2023/04/19 13:05:06;;;;;;;3.57;2.80;;;13.40;41.80;;;;;;5200304;28;20438;-51
2023/04/19 13:07:37;;;;;;;4.73;3.37;;;13.60;41.90;;;;;;5183692;28;20223;-49
2023/04/19 13:10:08;;;;;;;4.70;2.87;;;13.90;41.10;;;;;;5184898;28;20216;-52
2023/04/19 13:12:38;;;;;;;3.97;2.53;;;14.10;40.60;;;;;;5181062;28;20201;-49
2023/04/19 13:15:09;;;;;;;7.23;3.23;;;14.10;40.80;;;;;;5183776;28;20511;-50